This is the latest recevied weather packets stored in our database for station/object DL7KST-13. If no packets are shown the sender has not sent any weather packets the latest 10 day(s).
| Time | Temp. | Humidity | Pressure | Rain* | Wind** | Luminosity | Snow |
|---|---|---|---|---|---|---|---|
| 1777160786 | 5.56° C | 67% | 1006.6 hPa | 0 mm | 0.45 m/s, 340° | - | - |
| 1777159582 | 6.11° C | 65% | 1006.4 hPa | 0 mm | 0.45 m/s, 323° | - | - |
| 1777158378 | 6.11° C | 64% | 1006.3 hPa | 0 mm | 0.89 m/s, 336° | - | - |
| 1777157172 | 6.67° C | 65% | 1006 hPa | 0 mm | 1.34 m/s, 59° | - | - |
| 1777155968 | 6.67° C | 63% | 1005.5 hPa | 0 mm | 0.89 m/s, 303° | - | - |
| 1777154762 | 7.22° C | 62% | 1005.5 hPa | 0 mm | 0.89 m/s, 271° | - | - |
| 1777153556 | 7.22° C | 61% | 1005.1 hPa | 0 mm | 0.45 m/s, 346° | - | - |
| 1777152351 | 7.22° C | 60% | 1005 hPa | 0 mm | 0 m/s | - | - |
| 1777151147 | 7.78° C | 60% | 1004.8 hPa | 0 mm | 0.89 m/s, 304° | - | - |
| 1777149942 | 7.78° C | 59% | 1004.6 hPa | 0 mm | 2.24 m/s, 283° | - | - |
| 1777148737 | 8.33° C | 58% | 1004.2 hPa | 0 mm | 1.34 m/s, 328° | - | - |
| 1777147532 | 7.78° C | 57% | 1004.2 hPa | 0 mm | 1.34 m/s, 63° | - | - |
| 1777146328 | 8.33° C | 59% | 1004.2 hPa | 0 mm | 0.89 m/s, 285° | - | - |
| 1777145123 | 8.89° C | 59% | 1003.6 hPa | 0 mm | 0.89 m/s, 357° | - | - |
| 1777143917 | 10° C | 59% | 1003.2 hPa | 0 mm | 0 m/s | - | - |
| 1777142713 | 10.56° C | 55% | 1002.5 hPa | 0 mm | 0.89 m/s, 322° | - | - |
| 1777141507 | 10.56° C | 54% | 1002.5 hPa | 0 mm | 0.89 m/s, 305° | - | - |
| 1777140303 | 11.67° C | 53% | 1002 hPa | 0 mm | 1.34 m/s, 322° | - | - |
| 1777139097 | 12.22° C | 51% | 1002 hPa | 0 mm | 0 m/s | - | - |
| 1777137892 | 13.33° C | 48% | 1001.7 hPa | 0 mm | 0.45 m/s, 330° | - | - |
| 1777136689 | - | - | - | - | 0.45 m/s, 259° | - | - |
| 1777136686 | 13.89° C | 47% | 1001.5 hPa | 0 mm | 0.45 m/s, 259° | - | - |
| 1777135482 | 15° C | 47% | 1001.5 hPa | 0 mm | 0.45 m/s, 335° | - | - |
| 1777134278 | 15° C | 46% | 1001.7 hPa | 0 mm | 0.89 m/s, 309° | - | - |
| 1777133072 | 15° C | 47% | 1001.8 hPa | 0 mm | 0.89 m/s, 292° | - | - |
* Rain latest hour (hover to see other rain measurements)
** Current wind speed in m/s (hover to see current wind gust speed)